The Dalles, OR

5:11 PM PDT on March 29, 2015 (GMT -0700)
17th and Jefferson ST | | Change Station
CLOSE
Current Station
Personal Weather Station
Location: The Dalles, OR
Elevation: 486 ft
Nearby Weather Stations

Elev 486 ft 45.59 °N, 121.19 °W | Updated 3 seconds ago

Partly Cloudy
Partly Cloudy
67.6 °F
Feels Like 67.6 °F
N
5.3
Wind Variable Wind from NNE
Gusts 11.5 mph

Today
High -- | Low -- °F
--% Chance of Precip.
Yesterday
High -- | Low -- °F
Precip. -- in
6:50 AM 7:28 PM
Waxing Gibbous, 75% visible
Pressure 30.14 in
Visibility 10.0 miles
Clouds Clear
Dew Point 39 °F
Humidity 35%
Rainfall 0.00 in
Snow Depth Not available.
UV 0.9 out of 12
Pollen 8.20 out of 12
Air Quality Not available.
Flu Activity Not available.
METAR KDLS 292353Z AUTO 30014G21KT 10SM CLR 21/02 A3013 RMK AO2 SLP204 T02060017 10217 20133 56020

More Conditions Fewer Conditions

Pressure 30.14 in
Visibility 10.0 miles
Clouds Clear
Dew Point 39 °F
Humidity 35%
Rainfall 0.00 in
Snow Depth Not available.
UV 0.9 out of 12
Pollen 8.20 out of 12
Air Quality Not available.
Flu Activity Not available.
METAR KDLS 292353Z AUTO 30014G21KT 10SM CLR 21/02 A3013 RMK AO2 SLP204 T02060017 10217 20133 56020

More Conditions Fewer Conditions

10-Day Weather Forecast

Almanac

Astronomy

Mar. 29, 2015 Rise Set
Actual Time
Civil Twilight
Nautical Twilight
Astronomical Twilight
Moon
Length of Visible Light
Length of Day
Tomorrow will be .
, % of the Moon is Illuminated

Today's Extremes

State Highs State Lows

Community

WunderPhotos

Upload Photos

1,809,386 photos uploaded!

WunderBlogs® & News

Nearby

Air Quality

  Air Quality AQ Index Pollutant
Not available.

Snow Depth

Station Depth Elevation

Earthquake Activity

City Distance Mag. Time & Date
Minimum magnitude displayed is 2.5.

Coastal Water Temperatures

Place Temperature

Stations

Nearby Weather Stations

Station Location Temp. Windchill Dew Point Humidity Wind Precip. Elev Updated Type